Time;durP1;ratioP1;P1;durP2;ratioP2;P2;SDS_P1;SDS_P2;PMS_P1;PMS_P2;Temp;Humidity;BMP_temperature;BMP_pressure;BME280_temperature;BME280_humidity;BME280_pressure;Samples;Min_cycle;Max_cycle;Signal;HPM_P1;HPM_P2
2022/03/27 00:00:43;;;;;;;19.90;10.90;;;;;;;;;;10368525;28;20409;-46
2022/03/27 00:05:44;;;;;;;21.65;11.18;;;;;;;;;;10368045;28;20213;-46
2022/03/27 00:16:04;;;;;;;16.50;9.85;;;;;;;;;;10368184;28;20033;-49
2022/03/27 00:21:05;;;;;;;24.33;11.13;;;;;;;;;;10368358;28;20255;-63
2022/03/27 00:26:06;;;;;;;24.92;10.90;;;;;;;;;;10367594;28;20637;-45
2022/03/27 00:31:09;;;;;;;18.20;10.63;;;;;;;;;;10367118;28;20116;-46
2022/03/27 00:36:13;;;;;;;19.83;11.25;;;;;;;;;;10367420;28;20030;-46
2022/03/27 00:41:14;;;;;;;28.48;10.85;;;;;;;;;;10366577;28;20103;-46
2022/03/27 00:46:15;;;;;;;20.83;10.57;;;;;;;;;;10366402;28;20509;-46
2022/03/27 00:51:15;;;;;;;19.33;10.93;;;;;;;;;;10365937;28;20144;-46
2022/03/27 00:56:16;;;;;;;29.63;11.18;;;;;;;;;;10366549;28;20056;-46
2022/03/27 01:01:23;;;;;;;17.90;10.63;;;;;;;;;;10367029;28;20534;-45
2022/03/27 01:06:35;;;;;;;16.90;9.93;;;;;;;;;;10362731;28;20042;-60
2022/03/27 01:11:36;;;;;;;23.33;10.52;;;;;;;;;;10366099;28;20038;-63
2022/03/27 01:16:47;;;;;;;19.92;10.57;;;;;;;;;;10366637;28;20030;-63
2022/03/27 01:21:48;;;;;;;23.55;9.85;;;;;;;;;;10366964;28;20115;-46
2022/03/27 01:26:49;;;;;;;20.75;10.40;;;;;;;;;;10366059;28;20492;-46
2022/03/27 01:31:51;;;;;;;19.77;10.45;;;;;;;;;;10366564;28;20064;-46
2022/03/27 01:36:52;;;;;;;17.23;10.57;;;;;;;;;;10366073;28;20037;-47
2022/03/27 01:41:53;;;;;;;18.73;10.73;;;;;;;;;;10366148;28;20057;-66
2022/03/27 01:46:55;;;;;;;22.55;10.52;;;;;;;;;;10365882;28;20030;-62
2022/03/27 01:51:56;;;;;;;29.05;10.05;;;;;;;;;;10368169;28;20036;-54
2022/03/27 01:56:56;;;;;;;21.23;10.43;;;;;;;;;;10372648;28;20049;-65
2022/03/27 02:01:58;;;;;;;22.38;10.85;;;;;;;;;;10373146;28;20091;-66
2022/03/27 02:06:59;;;;;;;20.73;10.40;;;;;;;;;;10372742;28;20076;-66
2022/03/27 02:12:00;;;;;;;16.02;10.27;;;;;;;;;;10372603;28;20030;-62
2022/03/27 02:17:00;;;;;;;21.15;11.13;;;;;;;;;;10372440;28;20385;-61
2022/03/27 02:22:01;;;;;;;17.58;10.85;;;;;;;;;;10372204;28;20398;-59
2022/03/27 02:27:02;;;;;;;21.50;10.45;;;;;;;;;;10371126;28;20029;-62
2022/03/27 02:32:03;;;;;;;20.98;10.88;;;;;;;;;;10371766;28;20026;-66
2022/03/27 02:37:04;;;;;;;23.75;11.05;;;;;;;;;;10371603;28;20034;-66
2022/03/27 02:42:05;;;;;;;20.10;11.25;;;;;;;;;;10369906;28;20501;-66
2022/03/27 02:47:06;;;;;;;18.40;10.00;;;;;;;;;;10369573;28;20073;-66
2022/03/27 02:52:07;;;;;;;19.88;10.90;;;;;;;;;;10371007;28;20517;-46
2022/03/27 02:57:07;;;;;;;18.55;10.70;;;;;;;;;;10370507;28;20062;-45
2022/03/27 03:02:08;;;;;;;19.90;11.00;;;;;;;;;;10370739;28;20034;-46
2022/03/27 03:07:09;;;;;;;17.38;11.00;;;;;;;;;;10369569;28;20505;-45
2022/03/27 03:12:10;;;;;;;18.80;10.82;;;;;;;;;;10369966;28;20030;-45
2022/03/27 03:17:11;;;;;;;20.33;11.27;;;;;;;;;;10369642;28;20305;-66
2022/03/27 03:22:12;;;;;;;22.40;10.93;;;;;;;;;;10370082;28;20281;-66
2022/03/27 03:27:13;;;;;;;22.42;10.32;;;;;;;;;;10369740;28;20030;-63
2022/03/27 03:32:14;;;;;;;19.00;11.45;;;;;;;;;;10369680;28;20056;-65
2022/03/27 03:37:14;;;;;;;20.38;11.60;;;;;;;;;;10368859;28;20060;-57
2022/03/27 03:42:15;;;;;;;18.05;10.50;;;;;;;;;;10369637;28;20041;-45
2022/03/27 03:47:16;;;;;;;17.85;10.50;;;;;;;;;;10368921;28;20045;-60
2022/03/27 03:52:16;;;;;;;19.02;10.90;;;;;;;;;;10368365;28;20046;-46
2022/03/27 03:57:17;;;;;;;20.20;10.57;;;;;;;;;;10368181;28;20085;-47
2022/03/27 04:02:19;;;;;;;17.70;10.48;;;;;;;;;;10368683;28;20444;-46
2022/03/27 04:07:19;;;;;;;17.33;10.18;;;;;;;;;;10368486;28;20361;-46
2022/03/27 04:12:20;;;;;;;14.50;10.50;;;;;;;;;;10368290;28;20032;-46
2022/03/27 04:17:20;;;;;;;19.35;11.73;;;;;;;;;;10368244;28;20046;-46
2022/03/27 04:22:21;;;;;;;17.58;10.60;;;;;;;;;;10367928;28;20032;-47
2022/03/27 04:27:23;;;;;;;19.35;10.88;;;;;;;;;;10368044;28;20026;-46
2022/03/27 04:32:24;;;;;;;16.63;10.70;;;;;;;;;;10350659;28;20456;-46
2022/03/27 04:37:25;;;;;;;15.57;10.13;;;;;;;;;;10367082;28;20104;-46
2022/03/27 04:42:26;;;;;;;13.38;9.65;;;;;;;;;;10367493;28;20109;-46
2022/03/27 04:47:27;;;;;;;14.27;10.70;;;;;;;;;;10366877;28;20042;-45
2022/03/27 04:52:28;;;;;;;19.75;10.68;;;;;;;;;;10366795;28;20026;-61
2022/03/27 04:57:39;;;;;;;20.60;10.88;;;;;;;;;;10366170;28;20100;-47
2022/03/27 05:02:42;;;;;;;23.40;10.80;;;;;;;;;;10367064;28;20064;-47
2022/03/27 05:07:44;;;;;;;14.60;10.20;;;;;;;;;;10366932;28;20034;-52
2022/03/27 05:12:45;;;;;;;18.17;10.52;;;;;;;;;;10366950;28;20080;-46
2022/03/27 05:17:48;;;;;;;15.98;10.43;;;;;;;;;;10367212;28;20393;-46
2022/03/27 05:22:49;;;;;;;17.88;10.45;;;;;;;;;;10366532;28;20511;-47
2022/03/27 05:27:57;;;;;;;15.60;10.65;;;;;;;;;;10370238;28;20129;-46
2022/03/27 05:32:58;;;;;;;15.05;10.35;;;;;;;;;;10374806;28;20465;-46
2022/03/27 05:37:59;;;;;;;18.65;10.88;;;;;;;;;;10374184;28;20425;-46
2022/03/27 05:43:00;;;;;;;17.25;10.00;;;;;;;;;;10374593;28;20053;-46
2022/03/27 05:48:00;;;;;;;16.95;10.57;;;;;;;;;;10356286;28;20041;-46
2022/03/27 05:53:01;;;;;;;14.05;10.10;;;;;;;;;;10374104;28;20040;-46
2022/03/27 05:58:02;;;;;;;15.48;10.32;;;;;;;;;;10373185;28;20468;-46
2022/03/27 06:03:02;;;;;;;18.63;10.80;;;;;;;;;;10372180;28;20064;-46
2022/03/27 06:08:03;;;;;;;17.45;10.07;;;;;;;;;;10373237;28;20045;-47
2022/03/27 06:13:05;;;;;;;18.08;10.25;;;;;;;;;;10373160;28;20026;-46
2022/03/27 06:18:10;;;;;;;13.77;9.98;;;;;;;;;;10372503;28;20041;-46
2022/03/27 06:23:11;;;;;;;12.82;9.85;;;;;;;;;;10372394;28;20073;-46
2022/03/27 06:28:11;;;;;;;21.52;10.05;;;;;;;;;;10373333;28;20058;-47
2022/03/27 06:33:14;;;;;;;17.55;10.73;;;;;;;;;;10372583;28;20025;-45
2022/03/27 06:38:17;;;;;;;13.15;9.52;;;;;;;;;;10370430;28;20046;-46
2022/03/27 06:43:17;;;;;;;21.48;10.32;;;;;;;;;;10370908;28;20040;-46
2022/03/27 06:48:18;;;;;;;21.70;10.23;;;;;;;;;;10371949;28;20030;-46
2022/03/27 06:53:20;;;;;;;23.85;9.73;;;;;;;;;;10371341;28;20034;-44
2022/03/27 06:58:21;;;;;;;14.63;9.38;;;;;;;;;;10370401;28;20509;-44
2022/03/27 07:03:21;;;;;;;21.55;10.60;;;;;;;;;;10370416;28;20033;-44
2022/03/27 07:08:22;;;;;;;15.88;9.77;;;;;;;;;;10370990;28;20076;-44
2022/03/27 07:13:23;;;;;;;17.27;10.13;;;;;;;;;;10370391;28;20026;-45
2022/03/27 07:18:24;;;;;;;17.38;9.98;;;;;;;;;;10370261;28;20088;-45
2022/03/27 07:23:25;;;;;;;19.58;11.52;;;;;;;;;;10370018;28;20311;-44
2022/03/27 07:28:28;;;;;;;18.50;9.52;;;;;;;;;;10369764;28;20153;-45
2022/03/27 07:33:29;;;;;;;20.17;11.05;;;;;;;;;;10350876;28;20037;-45
2022/03/27 07:38:29;;;;;;;19.27;10.23;;;;;;;;;;10368866;28;20036;-44
2022/03/27 07:43:32;;;;;;;27.05;10.25;;;;;;;;;;10369320;28;20477;-45
2022/03/27 07:48:32;;;;;;;22.42;10.60;;;;;;;;;;10368841;28;20450;-45
2022/03/27 07:53:33;;;;;;;17.77;10.23;;;;;;;;;;10368687;28;20033;-44
2022/03/27 07:58:34;;;;;;;21.55;10.27;;;;;;;;;;10368795;28;20046;-44
2022/03/27 08:03:38;;;;;;;17.42;10.90;;;;;;;;;;10368730;28;20437;-44
2022/03/27 08:08:38;;;;;;;17.63;10.23;;;;;;;;;;10368743;28;20038;-44
2022/03/27 08:13:39;;;;;;;17.17;10.18;;;;;;;;;;10368481;28;20030;-44
2022/03/27 08:18:39;;;;;;;16.20;10.25;;;;;;;;;;10368776;28;20030;-47
2022/03/27 08:23:40;;;;;;;15.18;10.27;;;;;;;;;;10368141;28;20025;-44
2022/03/27 08:28:43;;;;;;;17.80;10.05;;;;;;;;;;10368369;28;20030;-45
2022/03/27 08:33:46;;;;;;;14.98;10.05;;;;;;;;;;10367985;28;20021;-45
2022/03/27 08:38:47;;;;;;;18.10;10.48;;;;;;;;;;10367562;28;20029;-44
2022/03/27 08:43:49;;;;;;;15.73;10.40;;;;;;;;;;10368161;28;20417;-44
2022/03/27 08:48:50;;;;;;;17.45;10.13;;;;;;;;;;10367725;28;20477;-44
2022/03/27 08:54:07;;;;;;;15.60;9.80;;;;;;;;;;10367718;28;20057;-44
2022/03/27 08:59:11;;;;;;;15.23;9.88;;;;;;;;;;10367286;28;20042;-45
2022/03/27 09:04:14;;;;;;;16.60;9.52;;;;;;;;;;10356133;28;20045;-45
2022/03/27 09:09:14;;;;;;;14.50;9.25;;;;;;;;;;10370510;28;20385;-45
2022/03/27 09:14:16;;;;;;;15.38;9.77;;;;;;;;;;10375208;28;20041;-45
2022/03/27 09:19:41;;;;;;;14.15;9.73;;;;;;;;;;10357921;28;20029;-45
2022/03/27 09:24:47;;;;;;;17.52;9.60;;;;;;;;;;10374763;28;20113;-44
2022/03/27 09:30:08;;;;;;;13.70;9.40;;;;;;;;;;10374947;28;20061;-44
2022/03/27 09:35:13;;;;;;;14.02;9.88;;;;;;;;;;10375149;28;20451;-45
2022/03/27 09:40:17;;;;;;;13.57;9.60;;;;;;;;;;10374254;28;20030;-44
2022/03/27 09:45:23;;;;;;;15.55;9.52;;;;;;;;;;10374103;28;20030;-46
2022/03/27 09:50:40;;;;;;;14.10;9.40;;;;;;;;;;10373877;28;20040;-44
2022/03/27 09:55:41;;;;;;;12.30;9.20;;;;;;;;;;10373170;28;20591;-44
2022/03/27 10:00:42;;;;;;;11.82;8.93;;;;;;;;;;10373680;28;20262;-45
2022/03/27 10:05:42;;;;;;;14.80;9.65;;;;;;;;;;10373262;28;20109;-44
2022/03/27 10:10:47;;;;;;;12.18;8.68;;;;;;;;;;10372952;28;20029;-45
2022/03/27 10:15:54;;;;;;;14.18;9.07;;;;;;;;;;10372703;28;20053;-44
2022/03/27 10:20:58;;;;;;;17.35;9.35;;;;;;;;;;10372703;28;20037;-45
2022/03/27 10:26:03;;;;;;;13.07;9.10;;;;;;;;;;10373036;28;20018;-45
2022/03/27 10:31:04;;;;;;;16.08;9.63;;;;;;;;;;10372281;28;20041;-44
2022/03/27 10:36:29;;;;;;;16.02;9.63;;;;;;;;;;10372083;28;20474;-44
2022/03/27 10:41:51;;;;;;;15.35;9.32;;;;;;;;;;10371752;28;20586;-45
2022/03/27 10:47:15;;;;;;;12.57;8.07;;;;;;;;;;10372179;28;20109;-44
2022/03/27 10:52:16;;;;;;;14.55;9.25;;;;;;;;;;10371430;28;20030;-57
2022/03/27 10:57:33;;;;;;;14.70;9.25;;;;;;;;;;10353513;28;20405;-59
2022/03/27 11:02:50;;;;;;;13.65;8.93;;;;;;;;;;10371611;28;20084;-59
2022/03/27 11:07:51;;;;;;;14.02;9.23;;;;;;;;;;10370708;28;20045;-61
2022/03/27 11:12:52;;;;;;;18.08;9.13;;;;;;;;;;10370575;28;20092;-54
2022/03/27 11:18:11;;;;;;;13.75;9.70;;;;;;;;;;10353141;28;20416;-54
2022/03/27 11:23:23;;;;;;;13.90;9.57;;;;;;;;;;10370514;28;20377;-61
2022/03/27 11:28:25;;;;;;;15.20;10.30;;;;;;;;;;10369842;28;20322;-56
2022/03/27 11:33:30;;;;;;;15.50;9.73;;;;;;;;;;10369955;28;20041;-60
2022/03/27 11:38:51;;;;;;;14.27;9.82;;;;;;;;;;10369774;28;20040;-62
2022/03/27 11:43:54;;;;;;;14.40;9.82;;;;;;;;;;10369386;28;20113;-60
2022/03/27 11:48:56;;;;;;;13.45;9.55;;;;;;;;;;10369354;28;20184;-58
2022/03/27 11:53:58;;;;;;;16.15;10.02;;;;;;;;;;10369206;28;20037;-61
2022/03/27 11:59:07;;;;;;;14.60;9.52;;;;;;;;;;10368595;28;20053;-58
2022/03/27 12:04:07;;;;;;;15.63;9.57;;;;;;;;;;10368930;28;20038;-61
2022/03/27 12:09:08;;;;;;;12.35;9.18;;;;;;;;;;10368523;28;20509;-58
2022/03/27 12:14:10;;;;;;;15.85;9.85;;;;;;;;;;10368256;28;20500;-61
2022/03/27 12:19:13;;;;;;;17.10;9.30;;;;;;;;;;10368131;28;20030;-57
2022/03/27 12:24:16;;;;;;;13.50;9.27;;;;;;;;;;10368201;28;20032;-59
2022/03/27 12:34:46;;;;;;;14.55;10.05;;;;;;;;;;10368261;28;20478;-61
2022/03/27 12:39:46;;;;;;;14.43;9.60;;;;;;;;;;10368127;28;20030;-58
2022/03/27 12:44:52;;;;;;;11.85;10.02;;;;;;;;;;10367501;28;20454;-60
2022/03/27 12:49:52;;;;;;;13.65;9.70;;;;;;;;;;10367498;28;20482;-45
2022/03/27 12:55:04;;;;;;;12.48;8.95;;;;;;;;;;10367133;28;20033;-45
2022/03/27 13:00:15;;;;;;;15.63;9.55;;;;;;;;;;10367494;28;20042;-44
2022/03/27 13:05:27;;;;;;;12.68;9.13;;;;;;;;;;10367447;28;20100;-45
2022/03/27 13:10:28;;;;;;;15.77;10.18;;;;;;;;;;10367005;28;20022;-45
2022/03/27 13:15:55;;;;;;;13.40;9.38;;;;;;;;;;10366912;28;20026;-44
2022/03/27 13:20:56;;;;;;;13.80;9.82;;;;;;;;;;10363791;28;20045;-45
2022/03/27 13:25:56;;;;;;;13.05;9.18;;;;;;;;;;10366662;28;20021;-44
2022/03/27 13:30:57;;;;;;;16.98;9.70;;;;;;;;;;10366648;28;20022;-45
2022/03/27 13:35:58;;;;;;;14.13;9.18;;;;;;;;;;10366606;28;20042;-45
2022/03/27 13:46:18;;;;;;;12.55;9.45;;;;;;;;;;10351495;28;20026;-46
2022/03/27 13:51:18;;;;;;;12.88;9.15;;;;;;;;;;10373031;28;20021;-45
2022/03/27 13:56:19;;;;;;;12.52;9.27;;;;;;;;;;10373114;28;20421;-61
2022/03/27 14:01:20;;;;;;;11.80;8.80;;;;;;;;;;10373860;28;20022;-61
2022/03/27 14:06:21;;;;;;;13.90;9.98;;;;;;;;;;10373306;28;20037;-62
2022/03/27 14:11:22;;;;;;;13.07;9.32;;;;;;;;;;10373094;28;20064;-61
2022/03/27 14:16:23;;;;;;;13.77;9.98;;;;;;;;;;10372696;28;20026;-59
2022/03/27 14:21:24;;;;;;;13.73;9.43;;;;;;;;;;10372991;28;20034;-60
2022/03/27 14:26:24;;;;;;;12.25;9.98;;;;;;;;;;10372394;28;20501;-61
2022/03/27 14:31:25;;;;;;;11.43;8.73;;;;;;;;;;10372585;28;20073;-60
2022/03/27 14:36:26;;;;;;;11.88;9.07;;;;;;;;;;10372346;28;20038;-58
2022/03/27 14:41:27;;;;;;;11.48;9.45;;;;;;;;;;10371870;28;20029;-60
2022/03/27 14:46:28;;;;;;;13.82;9.70;;;;;;;;;;10371673;28;20033;-62
2022/03/27 14:51:29;;;;;;;14.38;9.13;;;;;;;;;;10371506;28;20033;-56
2022/03/27 14:56:29;;;;;;;14.75;9.27;;;;;;;;;;10371125;28;20073;-44
2022/03/27 15:01:30;;;;;;;14.38;9.88;;;;;;;;;;10370393;28;20434;-44
2022/03/27 15:06:31;;;;;;;13.10;9.00;;;;;;;;;;10371214;28;20401;-44
2022/03/27 15:11:33;;;;;;;16.90;9.73;;;;;;;;;;10370627;28;20041;-45
2022/03/27 15:16:33;;;;;;;13.00;9.18;;;;;;;;;;10370450;28;20531;-44
2022/03/27 15:21:34;;;;;;;13.20;9.70;;;;;;;;;;10370469;28;20036;-44
2022/03/27 15:26:35;;;;;;;12.82;9.43;;;;;;;;;;10370058;28;20025;-44
2022/03/27 15:31:36;;;;;;;10.75;9.23;;;;;;;;;;10369972;28;20040;-44
2022/03/27 15:36:37;;;;;;;14.27;9.10;;;;;;;;;;10369667;28;20354;-45
2022/03/27 15:41:37;;;;;;;10.75;8.90;;;;;;;;;;10369549;28;20026;-45
2022/03/27 15:46:38;;;;;;;16.10;8.95;;;;;;;;;;10369324;28;20258;-44
2022/03/27 15:51:40;;;;;;;11.65;8.95;;;;;;;;;;10369430;28;20048;-45
2022/03/27 15:56:41;;;;;;;14.55;8.88;;;;;;;;;;10368894;28;20081;-61
2022/03/27 16:01:42;;;;;;;11.45;8.45;;;;;;;;;;10369051;28;20499;-59
2022/03/27 16:06:43;;;;;;;11.35;8.35;;;;;;;;;;10369515;28;20359;-61
2022/03/27 16:11:43;;;;;;;11.15;8.50;;;;;;;;;;10368208;28;20026;-62
2022/03/27 16:16:45;;;;;;;12.18;9.27;;;;;;;;;;10368292;28;20065;-62
2022/03/27 16:21:47;;;;;;;11.80;9.55;;;;;;;;;;10368548;28;20088;-58
2022/03/27 16:26:47;;;;;;;11.93;8.35;;;;;;;;;;10368246;28;20022;-61
2022/03/27 16:31:48;;;;;;;13.10;8.77;;;;;;;;;;10368698;28;20022;-56
2022/03/27 16:36:48;;;;;;;10.60;8.25;;;;;;;;;;10367921;28;20190;-57
2022/03/27 16:41:49;;;;;;;11.90;9.00;;;;;;;;;;10367578;28;20026;-58
2022/03/27 16:46:50;;;;;;;10.23;8.27;;;;;;;;;;10367662;28;20022;-58
2022/03/27 16:51:51;;;;;;;11.50;8.95;;;;;;;;;;10367959;28;20370;-62
2022/03/27 16:56:51;;;;;;;14.05;9.02;;;;;;;;;;10367496;28;20084;-45
2022/03/27 17:01:52;;;;;;;13.25;8.13;;;;;;;;;;10366156;28;20496;-45
2022/03/27 17:06:53;;;;;;;10.07;7.97;;;;;;;;;;10364975;28;20025;-45
2022/03/27 17:11:53;;;;;;;10.93;8.20;;;;;;;;;;10364214;28;20030;-44
2022/03/27 17:16:54;;;;;;;9.50;8.10;;;;;;;;;;10364168;28;20038;-44
2022/03/27 17:21:56;;;;;;;11.30;8.32;;;;;;;;;;10367614;28;20087;-44
2022/03/27 17:26:59;;;;;;;12.75;8.25;;;;;;;;;;10374018;28;20073;-44
2022/03/27 17:32:00;;;;;;;12.77;8.45;;;;;;;;;;10374632;28;20036;-44
2022/03/27 17:37:02;;;;;;;10.23;7.68;;;;;;;;;;10374414;28;20489;-44
2022/03/27 17:42:06;;;;;;;9.80;7.45;;;;;;;;;;10373773;28;20068;-43
2022/03/27 17:47:07;;;;;;;11.75;8.13;;;;;;;;;;10373979;28;20029;-44
2022/03/27 17:52:07;;;;;;;13.10;8.07;;;;;;;;;;10373952;28;20440;-43
2022/03/27 17:57:08;;;;;;;11.57;8.40;;;;;;;;;;10371844;28;20097;-59
2022/03/27 18:02:09;;;;;;;13.20;8.00;;;;;;;;;;10367910;28;20036;-58
2022/03/27 18:07:11;;;;;;;24.63;8.65;;;;;;;;;;10371004;28;20400;-57
2022/03/27 18:12:12;;;;;;;28.88;8.63;;;;;;;;;;10369480;28;20041;-60
2022/03/27 18:17:15;;;;;;;24.35;9.20;;;;;;;;;;10369197;28;20408;-59
2022/03/27 18:22:16;;;;;;;35.30;9.23;;;;;;;;;;10367168;28;20059;-60
2022/03/27 18:27:20;;;;;;;53.22;9.32;;;;;;;;;;10379908;28;20033;-60
2022/03/27 18:32:21;;;;;;;30.15;9.05;;;;;;;;;;10369231;28;20042;-61
2022/03/27 18:37:22;;;;;;;18.60;9.32;;;;;;;;;;10368421;28;20042;-64
2022/03/27 18:42:22;;;;;;;26.35;8.48;;;;;;;;;;10367683;28;20034;-46
2022/03/27 18:47:23;;;;;;;22.00;8.65;;;;;;;;;;10366864;28;20030;-60
2022/03/27 18:52:24;;;;;;;22.17;8.60;;;;;;;;;;10366592;28;20116;-59
2022/03/27 18:57:25;;;;;;;24.33;8.10;;;;;;;;;;10328322;28;1129567;-62
2022/03/27 19:02:26;;;;;;;21.38;9.05;;;;;;;;;;10370023;28;20042;-64
2022/03/27 19:07:27;;;;;;;20.70;8.82;;;;;;;;;;10370418;28;20388;-60
2022/03/27 19:12:28;;;;;;;21.08;8.93;;;;;;;;;;10370797;28;20040;-50
2022/03/27 19:17:31;;;;;;;15.63;8.00;;;;;;;;;;10369102;28;20596;-45
2022/03/27 19:22:37;;;;;;;20.75;8.05;;;;;;;;;;10342552;28;20039;-45
2022/03/27 19:27:38;;;;;;;17.00;8.02;;;;;;;;;;10368502;28;20038;-45
2022/03/27 19:32:40;;;;;;;18.67;8.18;;;;;;;;;;10377076;28;20037;-45
2022/03/27 19:37:40;;;;;;;17.58;7.95;;;;;;;;;;10365781;28;20048;-45
2022/03/27 19:42:42;;;;;;;21.38;7.85;;;;;;;;;;10367964;28;20030;-45
2022/03/27 19:47:43;;;;;;;23.10;7.75;;;;;;;;;;10365012;28;20037;-44
2022/03/27 19:52:44;;;;;;;17.55;7.55;;;;;;;;;;10361723;28;20398;-44
2022/03/27 19:57:45;;;;;;;21.80;8.20;;;;;;;;;;10367635;28;20046;-48
2022/03/27 20:02:49;;;;;;;20.33;8.27;;;;;;;;;;10368302;28;20026;-44
2022/03/27 20:07:50;;;;;;;16.83;8.43;;;;;;;;;;10366157;28;20041;-46
2022/03/27 20:12:53;;;;;;;17.33;7.82;;;;;;;;;;10366835;28;20504;-45
2022/03/27 20:17:56;;;;;;;20.17;7.82;;;;;;;;;;10365050;28;20030;-45
2022/03/27 20:22:57;;;;;;;21.02;7.93;;;;;;;;;;10365087;28;20032;-46
2022/03/27 20:27:58;;;;;;;18.75;7.68;;;;;;;;;;10363921;28;20036;-46
2022/03/27 20:32:58;;;;;;;14.32;7.90;;;;;;;;;;10364855;28;20022;-45
2022/03/27 20:37:59;;;;;;;12.93;7.60;;;;;;;;;;10365071;28;20029;-44
2022/03/27 20:43:00;;;;;;;17.23;8.23;;;;;;;;;;10364874;28;20026;-44
2022/03/27 20:48:01;;;;;;;21.88;7.35;;;;;;;;;;10368649;28;20042;-45
2022/03/27 20:53:02;;;;;;;18.40;8.75;;;;;;;;;;10367300;28;20481;-64
2022/03/27 20:58:04;;;;;;;12.75;7.63;;;;;;;;;;10370900;28;20049;-46
2022/03/27 21:03:06;;;;;;;13.20;7.60;;;;;;;;;;10375315;28;20100;-49
2022/03/27 21:08:08;;;;;;;14.48;8.35;;;;;;;;;;10374399;28;20057;-46
2022/03/27 21:13:08;;;;;;;15.10;8.23;;;;;;;;;;10374932;28;20517;-44
2022/03/27 21:18:10;;;;;;;23.45;8.40;;;;;;;;;;10374390;28;20026;-44
2022/03/27 21:23:10;;;;;;;16.40;7.97;;;;;;;;;;10387589;28;20021;-45
2022/03/27 21:28:11;;;;;;;23.23;8.20;;;;;;;;;;10394611;28;20034;-45
2022/03/27 21:33:11;;;;;;;11.13;8.13;;;;;;;;;;10374390;28;20038;-45
2022/03/27 21:38:12;;;;;;;19.15;8.35;;;;;;;;;;10373446;28;20045;-44
2022/03/27 21:43:13;;;;;;;14.82;8.73;;;;;;;;;;10374336;28;20540;-45
2022/03/27 21:48:13;;;;;;;14.75;8.95;;;;;;;;;;10372282;28;20388;-45
2022/03/27 21:53:14;;;;;;;17.02;9.50;;;;;;;;;;10373008;28;20053;-45
2022/03/27 21:58:15;;;;;;;14.07;8.77;;;;;;;;;;10370805;28;20050;-45
2022/03/27 22:03:17;;;;;;;24.67;9.02;;;;;;;;;;10372542;28;20038;-45
2022/03/27 22:08:18;;;;;;;20.67;8.32;;;;;;;;;;10372349;28;20052;-44
2022/03/27 22:13:19;;;;;;;18.75;7.72;;;;;;;;;;10373341;28;20026;-44
2022/03/27 22:18:20;;;;;;;19.35;8.68;;;;;;;;;;10372678;28;20034;-44
2022/03/27 22:23:21;;;;;;;18.52;7.38;;;;;;;;;;10373265;28;20030;-44
2022/03/27 22:28:22;;;;;;;28.73;8.57;;;;;;;;;;10372243;28;20026;-44
2022/03/27 22:33:24;;;;;;;15.68;8.10;;;;;;;;;;10372247;28;20436;-44
2022/03/27 22:38:24;;;;;;;14.43;8.13;;;;;;;;;;10372170;28;20335;-44
2022/03/27 22:43:25;;;;;;;18.15;7.90;;;;;;;;;;10372186;28;20030;-44
2022/03/27 22:48:26;;;;;;;13.82;7.53;;;;;;;;;;10372090;28;20033;-44
2022/03/27 22:53:27;;;;;;;19.02;7.88;;;;;;;;;;10371579;28;20531;-64
2022/03/27 22:58:27;;;;;;;16.10;7.03;;;;;;;;;;10371003;28;20506;-53
2022/03/27 23:03:28;;;;;;;16.17;8.05;;;;;;;;;;10371375;28;20021;-53
2022/03/27 23:08:29;;;;;;;14.25;7.72;;;;;;;;;;10370776;28;20029;-71
2022/03/27 23:13:29;;;;;;;15.02;8.02;;;;;;;;;;10370801;28;20657;-68
2022/03/27 23:18:30;;;;;;;10.60;7.25;;;;;;;;;;10370171;28;20034;-68
2022/03/27 23:23:30;;;;;;;13.65;7.55;;;;;;;;;;10369936;28;20037;-69
2022/03/27 23:28:31;;;;;;;13.52;7.60;;;;;;;;;;10369666;28;20034;-70
2022/03/27 23:33:31;;;;;;;14.05;7.80;;;;;;;;;;10370210;28;20040;-73
2022/03/27 23:38:32;;;;;;;11.52;6.93;;;;;;;;;;10370168;28;20040;-66
2022/03/27 23:43:33;;;;;;;14.15;6.97;;;;;;;;;;10369517;28;20049;-72
2022/03/27 23:48:34;;;;;;;13.18;7.30;;;;;;;;;;10370344;28;20416;-68
2022/03/27 23:53:35;;;;;;;15.90;8.82;;;;;;;;;;10369222;28;20100;-44
2022/03/27 23:58:35;;;;;;;12.60;7.93;;;;;;;;;;10369254;28;20050;-44
